createdAt,value
2017-05-23T00:00:29.853Z,0
2017-05-23T00:01:42.418Z,0
2017-05-23T00:02:54.952Z,0
2017-05-23T00:04:07.247Z,0
2017-05-23T00:05:19.811Z,0
2017-05-23T00:06:32.382Z,0
2017-05-23T00:07:44.971Z,0
2017-05-23T00:08:57.524Z,0
2017-05-23T00:10:09.782Z,0
2017-05-23T00:11:21.830Z,0
2017-05-23T00:12:33.831Z,0
2017-05-23T00:13:46.358Z,0
2017-05-23T00:14:58.579Z,0
2017-05-23T00:16:10.836Z,0
2017-05-23T00:17:23.127Z,0
2017-05-23T00:18:35.723Z,0
2017-05-23T00:19:48.266Z,0
2017-05-23T00:21:00.889Z,0
2017-05-23T00:22:13.486Z,0
2017-05-23T00:23:26.051Z,0
2017-05-23T00:24:38.574Z,0
2017-05-23T00:25:50.286Z,0
2017-05-23T00:27:02.869Z,0
2017-05-23T00:28:15.451Z,0
2017-05-23T00:29:28.311Z,0
2017-05-23T00:30:40.907Z,0
2017-05-23T00:31:53.503Z,0
2017-05-23T00:33:06.067Z,0
2017-05-23T00:34:18.323Z,0
2017-05-23T00:35:30.609Z,0
2017-05-23T00:36:43.186Z,0
2017-05-23T00:37:55.744Z,0
2017-05-23T00:39:08.305Z,0
2017-05-23T00:40:20.889Z,0
2017-05-23T00:41:33.439Z,0
2017-05-23T00:42:45.989Z,0
2017-05-23T00:43:58.563Z,0
2017-05-23T00:45:11.433Z,0
2017-05-23T00:46:24.022Z,0
2017-05-23T00:47:36.569Z,0
2017-05-23T00:48:49.116Z,0
2017-05-23T00:50:01.666Z,0
2017-05-23T00:51:14.306Z,0
2017-05-23T00:52:26.853Z,0
2017-05-23T00:53:39.424Z,0
2017-05-23T00:54:51.993Z,0
2017-05-23T00:56:04.582Z,0
2017-05-23T00:57:16.860Z,0
2017-05-23T00:58:28.807Z,0
2017-05-23T00:59:41.447Z,0
2017-05-23T01:00:54.049Z,0
2017-05-23T01:02:06.877Z,0
2017-05-23T01:03:19.149Z,0
2017-05-23T01:04:31.394Z,0
2017-05-23T01:05:43.649Z,0
2017-05-23T01:06:56.210Z,0
2017-05-23T01:08:08.488Z,0
2017-05-23T01:09:21.038Z,0
2017-05-23T01:10:33.620Z,0
2017-05-23T01:11:46.169Z,0
2017-05-23T01:12:58.441Z,0
2017-05-23T01:14:10.984Z,0
2017-05-23T01:15:23.524Z,0
2017-05-23T01:16:36.101Z,0
2017-05-23T01:17:48.709Z,0
2017-05-23T01:19:01.263Z,0
2017-05-23T01:20:13.543Z,0
2017-05-23T01:21:25.846Z,0
2017-05-23T01:22:38.106Z,0
2017-05-23T01:23:50.395Z,0
2017-05-23T01:25:02.949Z,0
2017-05-23T01:26:15.468Z,0
2017-05-23T01:27:28.033Z,0
2017-05-23T01:28:40.579Z,0
2017-05-23T01:29:52.826Z,0
2017-05-23T01:31:05.372Z,0
2017-05-23T01:32:17.923Z,0
2017-05-23T01:33:30.519Z,0
2017-05-23T01:34:43.409Z,0
2017-05-23T01:35:55.947Z,0
2017-05-23T01:37:08.532Z,0
2017-05-23T01:38:20.846Z,0
2017-05-23T01:39:33.404Z,0
2017-05-23T01:40:45.939Z,0
2017-05-23T01:41:58.491Z,0
2017-05-23T01:43:10.730Z,0
2017-05-23T01:44:23.232Z,0
2017-05-23T01:45:36.097Z,0
2017-05-23T01:46:48.690Z,0
2017-05-23T01:48:00.964Z,0
2017-05-23T01:49:13.495Z,0
2017-05-23T01:50:26.064Z,0
2017-05-23T01:51:38.012Z,0
2017-05-23T01:52:50.573Z,0
2017-05-23T01:54:02.819Z,0
2017-05-23T01:55:15.371Z,0
2017-05-23T01:56:27.936Z,0
2017-05-23T01:57:40.481Z,0
2017-05-23T01:58:52.751Z,0
2017-05-23T02:00:05.046Z,0
2017-05-23T02:01:17.675Z,0
2017-05-23T02:02:30.263Z,0
2017-05-23T02:03:42.841Z,0
2017-05-23T02:04:55.063Z,0
2017-05-23T02:06:07.653Z,0
2017-05-23T02:07:20.199Z,0
2017-05-23T02:08:32.779Z,0
2017-05-23T02:09:45.399Z,0
2017-05-23T02:10:58.065Z,0
2017-05-23T02:12:10.407Z,0
2017-05-23T02:13:22.959Z,0
2017-05-23T02:14:35.572Z,0
2017-05-23T02:15:48.152Z,0
2017-05-23T02:17:00.458Z,0
2017-05-23T02:18:12.741Z,0
2017-05-23T02:19:24.425Z,0
2017-05-23T02:20:36.984Z,0
2017-05-23T02:21:49.550Z,0
2017-05-23T02:23:01.777Z,0
2017-05-23T02:24:14.074Z,0
2017-05-23T02:25:26.638Z,0
2017-05-23T02:26:38.861Z,0
2017-05-23T02:27:51.410Z,0
2017-05-23T02:29:04.277Z,0
2017-05-23T02:30:16.833Z,0
2017-05-23T02:31:29.116Z,0
2017-05-23T02:32:41.687Z,0
2017-05-23T02:33:53.939Z,0
2017-05-23T02:35:06.486Z,0
2017-05-23T02:36:19.094Z,0
2017-05-23T02:37:31.644Z,0
2017-05-23T02:38:44.222Z,0
2017-05-23T02:39:56.482Z,0
2017-05-23T02:41:09.065Z,0
2017-05-23T02:42:21.671Z,0
2017-05-23T02:43:33.632Z,0
2017-05-23T02:44:46.228Z,0
2017-05-23T02:45:58.798Z,0
2017-05-23T02:47:11.363Z,0
2017-05-23T02:48:23.965Z,0
2017-05-23T02:49:35.305Z,0
2017-05-23T02:50:48.057Z,0
2017-05-23T02:52:00.647Z,5
2017-05-23T02:53:13.217Z,5
2017-05-23T02:54:25.771Z,5
2017-05-23T02:55:37.691Z,5
2017-05-23T02:56:49.942Z,5
2017-05-23T02:58:02.181Z,5
2017-05-23T02:59:14.746Z,5
2017-05-23T03:00:27.319Z,10
2017-05-23T03:01:39.582Z,10
2017-05-23T03:02:51.518Z,10
2017-05-23T03:04:03.813Z,10
2017-05-23T03:05:16.177Z,15
2017-05-23T03:06:27.833Z,15
2017-05-23T03:07:40.395Z,15
2017-05-23T03:08:52.621Z,20
2017-05-23T03:10:05.191Z,20
2017-05-23T03:11:17.457Z,20
2017-05-23T03:12:30.359Z,25
2017-05-23T03:13:42.605Z,25
2017-05-23T03:14:54.544Z,25
2017-05-23T03:16:07.090Z,30
2017-05-23T03:17:19.636Z,30
2017-05-23T03:18:31.831Z,30
2017-05-23T03:19:44.103Z,35
2017-05-23T03:20:56.373Z,35
2017-05-23T03:22:08.668Z,40
2017-05-23T03:23:21.216Z,40
2017-05-23T03:24:33.793Z,40
2017-05-23T03:25:46.383Z,45
2017-05-23T03:26:58.584Z,50
2017-05-23T03:28:10.551Z,50
2017-05-23T03:29:22.801Z,55
2017-05-23T03:30:35.073Z,55
2017-05-23T03:31:47.617Z,60
2017-05-23T03:33:00.158Z,60
2017-05-23T03:34:12.979Z,65
2017-05-23T03:35:25.556Z,70
2017-05-23T03:36:38.127Z,70
2017-05-23T03:37:50.694Z,75
2017-05-23T03:39:03.247Z,75
2017-05-23T03:40:15.509Z,80
2017-05-23T03:41:28.077Z,80
2017-05-23T03:42:40.308Z,85
2017-05-23T03:43:52.872Z,85
2017-05-23T03:45:05.398Z,90
2017-05-23T03:46:17.698Z,95
2017-05-23T03:47:30.259Z,90
2017-05-23T03:48:42.512Z,90
2017-05-23T03:49:54.768Z,90
2017-05-23T03:51:07.329Z,90
2017-05-23T03:52:19.943Z,90
2017-05-23T03:53:32.520Z,90
2017-05-23T03:54:45.135Z,95
2017-05-23T03:55:57.684Z,95
2017-05-23T03:57:09.925Z,95
2017-05-23T03:58:22.198Z,95
2017-05-23T03:59:34.450Z,100
2017-05-23T04:00:47.007Z,100
2017-05-23T04:01:59.585Z,100
2017-05-23T04:03:12.106Z,105
2017-05-23T04:04:24.707Z,105
2017-05-23T04:05:36.726Z,110
2017-05-23T04:06:49.242Z,110
2017-05-23T04:08:01.870Z,115
2017-05-23T04:09:14.436Z,120
2017-05-23T04:10:26.988Z,120
2017-05-23T04:11:39.527Z,130
2017-05-23T04:12:52.074Z,135
2017-05-23T04:14:04.595Z,140
2017-05-23T04:15:16.868Z,145
2017-05-23T04:16:29.368Z,150
2017-05-23T04:17:41.963Z,160
2017-05-23T04:18:54.603Z,160
2017-05-23T04:20:07.172Z,165
2017-05-23T04:21:19.430Z,165
2017-05-23T04:22:31.997Z,165
2017-05-23T04:23:44.586Z,165
2017-05-23T04:24:57.107Z,160
2017-05-23T04:26:09.678Z,160
2017-05-23T04:27:21.930Z,160
2017-05-23T04:28:34.153Z,160
2017-05-23T04:29:46.416Z,165
2017-05-23T04:30:58.968Z,170
2017-05-23T04:32:11.487Z,175
2017-05-23T04:33:23.435Z,180
2017-05-23T04:34:36.060Z,190
2017-05-23T04:35:48.313Z,195
2017-05-23T04:37:00.866Z,200
2017-05-23T04:38:13.417Z,210
2017-05-23T04:39:25.084Z,215
2017-05-23T04:40:37.354Z,220
2017-05-23T04:41:49.900Z,225
2017-05-23T04:43:01.871Z,225
2017-05-23T04:44:13.853Z,230
2017-05-23T04:45:26.394Z,230
2017-05-23T04:46:38.392Z,225
2017-05-23T04:47:50.961Z,225
2017-05-23T04:49:03.531Z,220
2017-05-23T04:50:15.821Z,220
2017-05-23T04:51:28.373Z,215
2017-05-23T04:52:40.615Z,220
2017-05-23T04:53:53.166Z,220
2017-05-23T04:55:05.483Z,225
2017-05-23T04:56:17.732Z,230
2017-05-23T04:57:30.329Z,235
2017-05-23T04:58:42.576Z,240
2017-05-23T04:59:55.189Z,250
2017-05-23T05:01:08.059Z,255
2017-05-23T05:02:20.621Z,265
2017-05-23T05:03:32.293Z,265
2017-05-23T05:04:44.548Z,265
2017-05-23T05:05:56.787Z,265
2017-05-23T05:07:09.321Z,270
2017-05-23T05:08:21.909Z,260
2017-05-23T05:09:33.581Z,255
2017-05-23T05:10:46.108Z,250
2017-05-23T05:11:58.654Z,245
2017-05-23T05:13:11.204Z,245
2017-05-23T05:14:23.190Z,240
2017-05-23T05:15:35.410Z,235
2017-05-23T05:16:47.980Z,240
2017-05-23T05:18:00.233Z,260
2017-05-23T05:19:12.830Z,265
2017-05-23T05:20:24.769Z,260
2017-05-23T05:21:37.320Z,260
2017-05-23T05:22:49.837Z,270
2017-05-23T05:24:02.382Z,290
2017-05-23T05:25:14.958Z,290
2017-05-23T05:26:26.981Z,285
2017-05-23T05:27:39.258Z,245
2017-05-23T05:28:50.898Z,230
2017-05-23T05:30:03.492Z,230
2017-05-23T05:31:15.867Z,230
2017-05-23T05:32:28.406Z,230
2017-05-23T05:33:40.381Z,240
2017-05-23T05:34:52.669Z,250
2017-05-23T05:36:04.020Z,255
2017-05-23T05:37:16.541Z,255
2017-05-23T05:38:28.508Z,260
2017-05-23T05:39:41.056Z,265
2017-05-23T05:40:53.581Z,270
2017-05-23T05:42:05.871Z,265
2017-05-23T05:43:18.465Z,250
2017-05-23T05:44:30.719Z,245
2017-05-23T05:45:43.009Z,245
2017-05-23T05:46:55.603Z,245
2017-05-23T05:48:07.875Z,250
2017-05-23T05:49:20.097Z,250
2017-05-23T05:50:32.642Z,250
2017-05-23T05:51:45.167Z,250
2017-05-23T05:52:57.115Z,255
2017-05-23T05:54:09.066Z,260
2017-05-23T05:55:21.332Z,265
2017-05-23T05:56:33.320Z,270
2017-05-23T05:57:45.899Z,280
2017-05-23T05:58:58.144Z,305
2017-05-23T06:00:09.509Z,295
2017-05-23T06:01:21.756Z,300
2017-05-23T06:02:34.045Z,305
2017-05-23T06:03:46.285Z,300
2017-05-23T06:04:58.875Z,310
2017-05-23T06:06:11.439Z,330
2017-05-23T06:07:23.085Z,335
2017-05-23T06:08:35.331Z,350
2017-05-23T06:09:47.308Z,375
2017-05-23T06:10:59.554Z,390
2017-05-23T06:12:11.813Z,400
2017-05-23T06:13:24.410Z,510
2017-05-23T06:14:36.661Z,580
2017-05-23T06:15:48.888Z,545
2017-05-23T06:17:01.452Z,500
2017-05-23T06:18:14.030Z,695
2017-05-23T06:19:25.976Z,680
2017-05-23T06:20:37.665Z,545
2017-05-23T06:21:50.186Z,515
2017-05-23T06:23:02.432Z,695
2017-05-23T06:24:15.009Z,740
2017-05-23T06:25:27.274Z,665
2017-05-23T06:26:39.226Z,750
2017-05-23T06:27:51.799Z,825
2017-05-23T06:29:04.379Z,660
2017-05-23T06:30:16.624Z,710
2017-05-23T06:31:29.227Z,625
2017-05-23T06:32:40.581Z,845
2017-05-23T06:33:52.846Z,920
2017-05-23T06:35:04.789Z,975
2017-05-23T06:36:17.061Z,805
2017-05-23T06:37:29.333Z,1035
2017-05-23T06:38:41.629Z,1015
2017-05-23T06:39:53.923Z,1065
2017-05-23T06:41:06.220Z,1145
2017-05-23T06:42:18.799Z,1120
2017-05-23T06:43:31.595Z,1185
2017-05-23T06:44:44.165Z,1220
2017-05-23T06:45:56.710Z,1260
2017-05-23T06:47:08.950Z,1285
2017-05-23T06:48:21.221Z,1220
2017-05-23T06:49:33.799Z,1270
2017-05-23T06:50:46.364Z,1330
2017-05-23T06:51:58.584Z,1260
2017-05-23T06:53:10.557Z,1290
2017-05-23T06:54:22.808Z,1350
2017-05-23T06:55:35.103Z,1315
2017-05-23T06:56:47.391Z,1295
2017-05-23T06:57:59.694Z,1225
2017-05-23T06:59:12.266Z,1325
2017-05-23T07:00:25.106Z,1370
2017-05-23T07:01:37.676Z,1395
2017-05-23T07:02:50.202Z,1275
2017-05-23T07:04:02.492Z,1330
2017-05-23T07:05:14.775Z,1365
2017-05-23T07:06:27.335Z,1420
2017-05-23T07:07:39.581Z,1315
2017-05-23T07:08:52.128Z,1210
2017-05-23T07:10:04.373Z,1415
2017-05-23T07:11:16.327Z,1465
2017-05-23T07:12:28.919Z,1450
2017-05-23T07:13:41.445Z,1510
2017-05-23T07:14:54.006Z,1485
2017-05-23T07:16:05.359Z,1435
2017-05-23T07:17:17.624Z,1520
2017-05-23T07:18:29.894Z,1400
2017-05-23T07:19:42.172Z,1625
2017-05-23T07:20:54.486Z,1650
2017-05-23T07:22:06.724Z,1845
2017-05-23T07:23:18.956Z,1835
2017-05-23T07:24:31.174Z,1860
2017-05-23T07:25:43.424Z,1805
2017-05-23T07:26:55.696Z,1805
2017-05-23T07:28:07.969Z,1840
2017-05-23T07:29:19.958Z,1780
2017-05-23T07:30:31.954Z,1640
2017-05-23T07:31:44.532Z,1610
2017-05-23T07:32:57.170Z,1655
2017-05-23T07:34:09.745Z,1590
2017-05-23T07:35:21.738Z,1600
2017-05-23T07:36:34.308Z,1670
2017-05-23T07:37:46.886Z,1585
2017-05-23T07:38:59.199Z,1755
2017-05-23T07:40:11.546Z,1825
2017-05-23T07:41:24.123Z,1780
2017-05-23T07:42:36.671Z,1615
2017-05-23T07:43:48.975Z,1635
2017-05-23T07:45:01.513Z,1510
2017-05-23T07:46:13.480Z,1220
2017-05-23T07:47:25.753Z,1375
2017-05-23T07:48:38.024Z,1675
2017-05-23T07:49:50.037Z,1805
2017-05-23T07:51:02.315Z,2125
2017-05-23T07:52:14.881Z,1940
2017-05-23T07:53:26.529Z,2005
2017-05-23T07:54:38.820Z,2055
2017-05-23T07:55:51.424Z,2165
2017-05-23T07:57:03.737Z,2050
2017-05-23T07:58:16.009Z,2120
2017-05-23T07:59:28.583Z,2255
2017-05-23T08:00:41.133Z,2090
2017-05-23T08:01:53.727Z,2060
2017-05-23T08:03:06.042Z,2155
2017-05-23T08:04:18.032Z,2200
2017-05-23T08:05:30.310Z,2215
2017-05-23T08:06:42.898Z,2210
2017-05-23T08:07:54.579Z,2030
2017-05-23T08:09:06.855Z,1840
2017-05-23T08:10:18.877Z,1520
2017-05-23T08:11:31.471Z,1725
2017-05-23T08:12:44.084Z,1995
2017-05-23T08:13:56.344Z,2150
2017-05-23T08:15:08.046Z,2100
2017-05-23T08:16:19.729Z,2225
2017-05-23T08:17:32.351Z,2175
2017-05-23T08:18:44.948Z,2220
2017-05-23T08:19:56.621Z,2160
2017-05-23T08:21:09.207Z,2135
2017-05-23T08:22:21.179Z,2380
2017-05-23T08:23:33.455Z,2370
2017-05-23T08:24:46.001Z,2400
2017-05-23T08:25:58.597Z,2295
2017-05-23T08:27:10.893Z,2565
2017-05-23T08:28:22.914Z,2695
2017-05-23T08:29:35.503Z,2570
2017-05-23T08:30:47.823Z,2560
2017-05-23T08:32:00.412Z,2675
2017-05-23T08:33:12.643Z,2475
2017-05-23T08:34:24.969Z,2575
2017-05-23T08:35:37.258Z,2330
2017-05-23T08:36:49.485Z,1915
2017-05-23T08:38:02.031Z,1365
2017-05-23T08:39:14.297Z,1600
2017-05-23T08:40:26.874Z,1460
2017-05-23T08:41:39.114Z,1405
2017-05-23T08:42:51.411Z,1575
2017-05-23T08:44:03.960Z,1555
2017-05-23T08:45:16.232Z,1450
2017-05-23T08:46:28.796Z,1300
2017-05-23T08:47:40.793Z,1220
2017-05-23T08:48:53.395Z,1220
2017-05-23T08:50:05.685Z,1240
2017-05-23T08:51:17.931Z,1165
2017-05-23T08:52:30.244Z,1105
2017-05-23T08:53:42.827Z,1035
2017-05-23T08:54:54.817Z,1025
2017-05-23T08:56:07.120Z,985
2017-05-23T08:57:19.754Z,980
2017-05-23T08:58:32.347Z,965
2017-05-23T08:59:45.183Z,1010
2017-05-23T09:00:57.497Z,1015
2017-05-23T09:02:09.769Z,1045
2017-05-23T09:03:22.356Z,1030
2017-05-23T09:04:34.341Z,990
2017-05-23T09:05:46.949Z,1030
2017-05-23T09:06:59.485Z,1025
2017-05-23T09:08:11.747Z,985
2017-05-23T09:09:23.455Z,1095
2017-05-23T09:10:35.732Z,1065
2017-05-23T09:11:47.791Z,1095
2017-05-23T09:13:00.130Z,1060
2017-05-23T09:14:12.429Z,1145
2017-05-23T09:15:24.696Z,1155
2017-05-23T09:16:36.975Z,1260
2017-05-23T09:17:49.547Z,1315
2017-05-23T09:19:02.120Z,1260
2017-05-23T09:20:14.738Z,1320
2017-05-23T09:21:27.284Z,1440
2017-05-23T09:22:39.580Z,1510
2017-05-23T09:23:52.144Z,1405
2017-05-23T09:25:04.090Z,1565
2017-05-23T09:26:16.628Z,985
2017-05-23T09:27:29.175Z,1380
2017-05-23T09:28:41.433Z,735
2017-05-23T09:29:54.004Z,615
2017-05-23T09:31:06.567Z,1575
2017-05-23T09:32:18.268Z,2230
2017-05-23T09:33:30.813Z,2300
2017-05-23T09:34:42.462Z,640
2017-05-23T09:35:55.006Z,570
2017-05-23T09:37:06.928Z,580
2017-05-23T09:38:18.867Z,725
2017-05-23T09:39:31.133Z,820
2017-05-23T09:40:43.689Z,3745
2017-05-23T09:41:55.941Z,3575
2017-05-23T09:43:08.482Z,3380
2017-05-23T09:44:20.755Z,3610
2017-05-23T09:45:33.027Z,1120
2017-05-23T09:46:45.599Z,890
2017-05-23T09:47:58.170Z,1020
2017-05-23T09:49:10.713Z,905
2017-05-23T09:50:22.355Z,3950
2017-05-23T09:51:34.633Z,905
2017-05-23T09:52:46.613Z,865
2017-05-23T09:53:59.164Z,1135
2017-05-23T09:55:11.689Z,1175
2017-05-23T09:56:23.334Z,3815
2017-05-23T09:57:35.906Z,3115
2017-05-23T09:58:48.485Z,3450
2017-05-23T10:00:00.447Z,4200
2017-05-23T10:01:12.700Z,3870
2017-05-23T10:02:24.938Z,3360
2017-05-23T10:03:37.504Z,3050
2017-05-23T10:04:50.059Z,1560
2017-05-23T10:06:02.302Z,1695
2017-05-23T10:07:14.851Z,2635
2017-05-23T10:08:27.113Z,1410
2017-05-23T10:09:39.695Z,3540
2017-05-23T10:10:51.356Z,3975
2017-05-23T10:12:03.884Z,4035
2017-05-23T10:13:16.476Z,3995
2017-05-23T10:14:28.725Z,3785
2017-05-23T10:15:41.269Z,3035
2017-05-23T10:16:53.236Z,3865
2017-05-23T10:18:05.485Z,3855
2017-05-23T10:19:18.057Z,3945
2017-05-23T10:20:30.022Z,3745
2017-05-23T10:21:41.951Z,4145
2017-05-23T10:22:54.272Z,3905
2017-05-23T10:24:06.514Z,3845
2017-05-23T10:25:18.785Z,3860
2017-05-23T10:26:31.037Z,3180
2017-05-23T10:27:42.680Z,4075
2017-05-23T10:28:54.941Z,3875
2017-05-23T10:30:07.519Z,3405
2017-05-23T10:31:19.767Z,2575
2017-05-23T10:32:32.312Z,2120
2017-05-23T10:33:44.858Z,3115
2017-05-23T10:34:57.107Z,4090
2017-05-23T10:36:09.395Z,1440
2017-05-23T10:37:22.222Z,3570
2017-05-23T10:38:34.793Z,3660
2017-05-23T10:39:46.114Z,3590
2017-05-23T10:40:58.062Z,4005
2017-05-23T10:42:09.433Z,4130
2017-05-23T10:43:21.682Z,4325
2017-05-23T10:44:33.367Z,680
2017-05-23T10:45:45.416Z,900
2017-05-23T10:46:57.655Z,3905
2017-05-23T10:48:10.210Z,4135
2017-05-23T10:49:22.475Z,4160
2017-05-23T10:50:35.028Z,4265
2017-05-23T10:51:46.991Z,4280
2017-05-23T10:52:59.616Z,4230
2017-05-23T10:54:11.868Z,4170
2017-05-23T10:55:24.115Z,4160
2017-05-23T10:56:36.401Z,3785
2017-05-23T10:57:48.655Z,3710
2017-05-23T10:59:00.874Z,3840
2017-05-23T11:00:13.138Z,4005
2017-05-23T11:01:25.413Z,3825
2017-05-23T11:02:37.385Z,3950
2017-05-23T11:03:49.951Z,3880
2017-05-23T11:05:02.250Z,3585
2017-05-23T11:06:14.522Z,3515
2017-05-23T11:07:26.792Z,3395
2017-05-23T11:08:39.040Z,3350
2017-05-23T11:09:51.314Z,3780
2017-05-23T11:11:03.605Z,3985
2017-05-23T11:12:15.873Z,3815
2017-05-23T11:13:28.430Z,990
2017-05-23T11:14:40.710Z,955
2017-05-23T11:15:53.272Z,2375
2017-05-23T11:17:05.837Z,3655
2017-05-23T11:18:18.085Z,2875
2017-05-23T11:19:30.657Z,3755
2017-05-23T11:20:43.477Z,3800
2017-05-23T11:21:55.449Z,3310
2017-05-23T11:23:07.718Z,3030
2017-05-23T11:24:20.302Z,3155
2017-05-23T11:25:32.577Z,2915
2017-05-23T11:26:45.151Z,2895
2017-05-23T11:27:57.426Z,3030
2017-05-23T11:29:09.412Z,2815
2017-05-23T11:30:22.045Z,780
2017-05-23T11:31:34.306Z,2665
2017-05-23T11:32:46.557Z,2340
2017-05-23T11:33:59.077Z,2460
2017-05-23T11:35:11.024Z,2465
2017-05-23T11:36:23.561Z,2440
2017-05-23T11:37:36.096Z,2355
2017-05-23T11:38:47.739Z,2325
2017-05-23T11:40:00.310Z,2000
2017-05-23T11:41:12.327Z,1985
2017-05-23T11:42:24.853Z,1915
2017-05-23T11:43:37.112Z,1990
2017-05-23T11:44:49.087Z,1850
2017-05-23T11:46:01.640Z,1845
2017-05-23T11:47:14.228Z,1685
2017-05-23T11:48:26.480Z,2010
2017-05-23T11:49:39.045Z,2050
2017-05-23T11:50:51.624Z,1840
2017-05-23T11:52:04.203Z,2000
2017-05-23T11:53:16.179Z,2005
2017-05-23T11:54:28.714Z,1780
2017-05-23T11:55:41.000Z,1910
2017-05-23T11:56:52.952Z,3020
2017-05-23T11:58:04.924Z,3830
2017-05-23T11:59:17.547Z,4850
2017-05-23T12:00:30.138Z,6200
2017-05-23T12:01:42.401Z,7060
2017-05-23T12:02:54.982Z,6360
2017-05-23T12:04:06.645Z,5775
2017-05-23T12:05:18.319Z,5640
2017-05-23T12:06:30.887Z,5075
2017-05-23T12:07:43.438Z,4710
2017-05-23T12:08:55.700Z,4300
2017-05-23T12:10:07.379Z,4145
2017-05-23T12:11:19.331Z,3695
2017-05-23T12:12:31.897Z,3500
2017-05-23T12:13:44.474Z,3475
2017-05-23T12:14:56.142Z,3750
2017-05-23T12:16:08.436Z,4285
2017-05-23T12:17:20.998Z,4750
2017-05-23T12:18:33.551Z,5140
2017-05-23T12:19:46.106Z,5355
2017-05-23T12:20:58.371Z,5405
2017-05-23T12:22:10.632Z,4975
2017-05-23T12:23:22.885Z,4620
2017-05-23T12:24:35.451Z,4575
2017-05-23T12:25:47.444Z,4130
2017-05-23T12:26:59.698Z,4250
2017-05-23T12:28:11.996Z,4365
2017-05-23T12:29:24.565Z,4390
2017-05-23T12:30:35.911Z,4560
2017-05-23T12:31:48.477Z,4715
2017-05-23T12:33:00.431Z,4650
2017-05-23T12:34:12.398Z,4855
2017-05-23T12:35:24.664Z,4655
2017-05-23T12:36:36.935Z,4185
2017-05-23T12:37:49.510Z,2930
2017-05-23T12:39:01.478Z,1125
2017-05-23T12:40:13.745Z,2065
2017-05-23T12:41:26.002Z,4030
2017-05-23T12:42:38.575Z,4110
2017-05-23T12:43:50.833Z,3050
2017-05-23T12:45:03.107Z,3960
2017-05-23T12:46:15.682Z,4080
2017-05-23T12:47:27.958Z,4230
2017-05-23T12:48:39.928Z,4350
2017-05-23T12:49:52.474Z,4630
2017-05-23T12:51:05.019Z,4895
2017-05-23T12:52:16.091Z,4730
2017-05-23T12:53:28.687Z,5430
2017-05-23T12:54:40.658Z,5255
2017-05-23T12:55:52.625Z,3905
2017-05-23T12:57:04.872Z,4705
2017-05-23T12:58:17.118Z,2120
2017-05-23T12:59:29.681Z,4525
2017-05-23T13:00:42.238Z,4795
2017-05-23T13:01:54.496Z,3710
2017-05-23T13:03:07.053Z,4300
2017-05-23T13:04:18.702Z,3905
2017-05-23T13:05:31.285Z,3750
2017-05-23T13:06:43.538Z,4450
2017-05-23T13:07:55.786Z,4310
2017-05-23T13:09:07.730Z,3970
2017-05-23T13:10:20.346Z,3990
2017-05-23T13:11:32.597Z,1360
2017-05-23T13:12:44.860Z,4175
2017-05-23T13:13:56.798Z,4115
2017-05-23T13:15:08.761Z,3935
2017-05-23T13:16:21.334Z,3480
2017-05-23T13:17:33.900Z,3205
2017-05-23T13:18:46.146Z,2870
2017-05-23T13:19:58.397Z,3415
2017-05-23T13:21:10.959Z,2365
2017-05-23T13:22:23.485Z,1215
2017-05-23T13:23:36.056Z,2205
2017-05-23T13:24:48.630Z,1135
2017-05-23T13:26:01.175Z,1245
2017-05-23T13:27:13.114Z,2920
2017-05-23T13:28:25.665Z,1895
2017-05-23T13:29:37.928Z,1395
2017-05-23T13:30:50.498Z,1040
2017-05-23T13:32:02.773Z,955
2017-05-23T13:33:14.998Z,945
2017-05-23T13:34:27.569Z,965
2017-05-23T13:35:40.093Z,3695
2017-05-23T13:36:52.661Z,2420
2017-05-23T13:38:04.906Z,3215
2017-05-23T13:39:17.146Z,2540
2017-05-23T13:40:29.692Z,3645
2017-05-23T13:41:42.199Z,2180
2017-05-23T13:42:54.441Z,4330
2017-05-23T13:44:06.965Z,2770
2017-05-23T13:45:19.524Z,1780
2017-05-23T13:46:31.803Z,1745
2017-05-23T13:47:44.025Z,2890
2017-05-23T13:48:55.986Z,2650
2017-05-23T13:50:07.368Z,1130
2017-05-23T13:51:19.630Z,1100
2017-05-23T13:52:32.182Z,880
2017-05-23T13:53:43.833Z,880
2017-05-23T13:54:55.804Z,930
2017-05-23T13:56:08.063Z,1085
2017-05-23T13:57:19.398Z,1655
2017-05-23T13:58:31.943Z,1080
2017-05-23T13:59:43.909Z,985
2017-05-23T14:00:56.155Z,1005
2017-05-23T14:02:08.402Z,895
2017-05-23T14:03:20.353Z,1080
2017-05-23T14:04:32.919Z,735
2017-05-23T14:05:45.184Z,890
2017-05-23T14:06:57.727Z,2805
2017-05-23T14:08:09.975Z,3540
2017-05-23T14:09:22.228Z,2520
2017-05-23T14:10:34.475Z,2385
2017-05-23T14:11:46.721Z,2545
2017-05-23T14:12:58.669Z,1425
2017-05-23T14:14:11.213Z,1555
2017-05-23T14:15:23.477Z,1490
2017-05-23T14:16:36.027Z,1495
2017-05-23T14:17:47.372Z,1740
2017-05-23T14:18:59.919Z,1140
2017-05-23T14:20:11.860Z,1275
2017-05-23T14:21:24.385Z,1110
2017-05-23T14:22:36.934Z,1105
2017-05-23T14:23:48.581Z,955
2017-05-23T14:25:00.525Z,1295
2017-05-23T14:26:11.890Z,2435
2017-05-23T14:27:24.449Z,2250
2017-05-23T14:28:36.392Z,1645
2017-05-23T14:29:48.985Z,1195
2017-05-23T14:31:01.232Z,730
2017-05-23T14:32:13.474Z,685
2017-05-23T14:33:25.741Z,1040
2017-05-23T14:34:38.270Z,695
2017-05-23T14:35:50.515Z,835
2017-05-23T14:37:02.782Z,910
2017-05-23T14:38:15.020Z,910
2017-05-23T14:39:27.591Z,920
2017-05-23T14:40:40.148Z,935
2017-05-23T14:41:52.711Z,855
2017-05-23T14:43:04.645Z,845
2017-05-23T14:44:16.889Z,870
2017-05-23T14:45:29.132Z,810
2017-05-23T14:46:41.106Z,775
2017-05-23T14:47:53.368Z,730
2017-05-23T14:49:05.916Z,685
2017-05-23T14:50:18.191Z,685
2017-05-23T14:51:30.733Z,700
2017-05-23T14:52:43.286Z,675
2017-05-23T14:53:54.959Z,640
2017-05-23T14:55:06.938Z,600
2017-05-23T14:56:18.597Z,605
2017-05-23T14:57:30.884Z,695
2017-05-23T14:58:43.440Z,640
2017-05-23T14:59:55.726Z,665
2017-05-23T15:01:07.693Z,660
2017-05-23T15:02:20.217Z,635
2017-05-23T15:03:32.474Z,600
2017-05-23T15:04:45.034Z,570
2017-05-23T15:05:56.976Z,550
2017-05-23T15:07:09.547Z,555
2017-05-23T15:08:21.810Z,560
2017-05-23T15:09:34.347Z,550
2017-05-23T15:10:46.914Z,545
2017-05-23T15:11:59.514Z,575
2017-05-23T15:13:11.477Z,605
2017-05-23T15:14:23.427Z,665
2017-05-23T15:15:35.950Z,645
2017-05-23T15:16:48.203Z,665
2017-05-23T15:17:59.844Z,685
2017-05-23T15:19:12.085Z,690
2017-05-23T15:20:24.654Z,675
2017-05-23T15:21:36.910Z,675
2017-05-23T15:22:48.872Z,720
2017-05-23T15:24:01.423Z,700
2017-05-23T15:25:13.943Z,565
2017-05-23T15:26:26.187Z,530
2017-05-23T15:27:38.754Z,510
2017-05-23T15:28:51.002Z,500
2017-05-23T15:30:03.255Z,495
2017-05-23T15:31:15.477Z,490
2017-05-23T15:32:27.712Z,490
2017-05-23T15:33:39.366Z,495
2017-05-23T15:34:51.610Z,500
2017-05-23T15:36:03.237Z,510
2017-05-23T15:37:15.804Z,530
2017-05-23T15:38:28.069Z,540
2017-05-23T15:39:40.022Z,570
2017-05-23T15:40:52.583Z,610
2017-05-23T15:42:05.157Z,645
2017-05-23T15:43:17.104Z,600
2017-05-23T15:44:29.357Z,595
2017-05-23T15:45:41.904Z,610
2017-05-23T15:46:54.152Z,625
2017-05-23T15:48:06.697Z,635
2017-05-23T15:49:18.685Z,645
2017-05-23T15:50:30.944Z,640
2017-05-23T15:51:42.897Z,635
2017-05-23T15:52:55.174Z,625
2017-05-23T15:54:07.121Z,610
2017-05-23T15:55:19.650Z,595
2017-05-23T15:56:31.591Z,595
2017-05-23T15:57:44.137Z,600
2017-05-23T15:58:56.705Z,605
2017-05-23T16:00:09.307Z,615
2017-05-23T16:01:21.853Z,610
2017-05-23T16:02:34.403Z,610
2017-05-23T16:03:46.680Z,595
2017-05-23T16:04:58.934Z,580
2017-05-23T16:06:10.901Z,560
2017-05-23T16:07:22.834Z,545
2017-05-23T16:08:35.090Z,510
2017-05-23T16:09:47.647Z,480
2017-05-23T16:11:00.234Z,460
2017-05-23T16:12:12.177Z,475
2017-05-23T16:13:24.131Z,470
2017-05-23T16:14:36.371Z,445
2017-05-23T16:15:48.944Z,435
2017-05-23T16:17:01.468Z,420
2017-05-23T16:18:13.693Z,425
2017-05-23T16:19:25.956Z,435
2017-05-23T16:20:38.508Z,455
2017-05-23T16:21:50.747Z,460
2017-05-23T16:23:03.001Z,460
2017-05-23T16:24:15.215Z,455
2017-05-23T16:25:27.769Z,425
2017-05-23T16:26:40.016Z,395
2017-05-23T16:27:51.974Z,375
2017-05-23T16:29:03.882Z,355
2017-05-23T16:30:16.453Z,355
2017-05-23T16:31:29.020Z,365
2017-05-23T16:32:41.283Z,370
2017-05-23T16:33:53.536Z,355
2017-05-23T16:35:06.075Z,350